createdAt,value
2018-10-16T00:02:06.019Z,62.10
2018-10-16T00:04:34.364Z,62.30
2018-10-16T00:07:02.600Z,62.30
2018-10-16T00:09:30.761Z,62.70
2018-10-16T00:12:02.036Z,63.00
2018-10-16T00:14:30.528Z,63.00
2018-10-16T00:16:58.882Z,63.10
2018-10-16T00:19:27.003Z,63.20
2018-10-16T00:21:55.488Z,63.40
2018-10-16T00:24:23.831Z,63.70
2018-10-16T00:26:52.112Z,64.30
2018-10-16T00:29:20.724Z,64.40
2018-10-16T00:31:48.847Z,64.50
2018-10-16T00:34:16.985Z,64.60
2018-10-16T00:36:45.118Z,65.00
2018-10-16T00:39:14.214Z,65.20
2018-10-16T00:41:42.592Z,65.20
2018-10-16T00:44:11.817Z,65.10
2018-10-16T00:46:41.227Z,65.10
2018-10-16T00:49:09.334Z,64.90
2018-10-16T00:51:39.179Z,65.10
2018-10-16T00:54:07.356Z,65.30
2018-10-16T00:56:35.639Z,66.80
2018-10-16T00:59:03.800Z,66.00
2018-10-16T01:01:33.980Z,66.10
2018-10-16T01:04:04.196Z,66.50
2018-10-16T01:06:33.441Z,67.30
2018-10-16T01:09:01.523Z,67.20
2018-10-16T01:11:29.686Z,67.20
2018-10-16T01:13:58.333Z,67.70
2018-10-16T01:16:26.487Z,67.90
2018-10-16T01:18:54.609Z,68.40
2018-10-16T01:21:22.723Z,68.40
2018-10-16T01:23:50.826Z,68.60
2018-10-16T01:26:18.935Z,68.70
2018-10-16T01:28:47.120Z,68.70
2018-10-16T01:31:15.242Z,68.90
2018-10-16T01:33:43.396Z,69.20
2018-10-16T01:36:11.945Z,69.10
2018-10-16T01:38:40.135Z,69.50
2018-10-16T01:41:09.456Z,69.80
2018-10-16T01:43:37.951Z,70.30
2018-10-16T01:46:06.086Z,70.10
2018-10-16T01:48:34.453Z,70.70
2018-10-16T01:51:02.626Z,70.90
2018-10-16T01:53:30.757Z,70.60
2018-10-16T01:55:58.932Z,70.80
2018-10-16T01:58:27.247Z,71.10
2018-10-16T02:00:55.370Z,71.10
2018-10-16T02:03:23.500Z,71.10
2018-10-16T02:05:51.675Z,71.00
2018-10-16T02:08:19.812Z,70.80
2018-10-16T02:10:47.932Z,71.00
2018-10-16T02:13:16.112Z,71.30
2018-10-16T02:15:44.231Z,71.40
2018-10-16T02:18:12.355Z,71.40
2018-10-16T02:20:40.514Z,71.30
2018-10-16T02:23:08.643Z,71.50
2018-10-16T02:25:36.791Z,72.30
2018-10-16T02:28:05.097Z,72.40
2018-10-16T02:30:33.356Z,72.40
2018-10-16T02:33:01.641Z,73.10
2018-10-16T02:35:29.779Z,73.10
2018-10-16T02:37:57.925Z,73.70
2018-10-16T02:40:26.054Z,73.80
2018-10-16T02:42:54.176Z,73.70
2018-10-16T02:45:22.268Z,73.30
2018-10-16T02:47:50.378Z,73.20
2018-10-16T02:50:18.653Z,73.60
2018-10-16T02:52:46.798Z,73.90
2018-10-16T02:55:14.896Z,74.20
2018-10-16T02:57:43.075Z,74.10
2018-10-16T03:00:11.207Z,74.20
2018-10-16T03:02:39.355Z,74.30
2018-10-16T03:05:07.634Z,74.40
2018-10-16T03:07:35.757Z,74.60
2018-10-16T03:10:03.977Z,74.80
2018-10-16T03:12:32.108Z,75.10
2018-10-16T03:15:00.319Z,75.40
2018-10-16T03:17:28.456Z,75.30
2018-10-16T03:19:56.609Z,75.40
2018-10-16T03:22:24.787Z,75.30
2018-10-16T03:24:52.888Z,75.50
2018-10-16T03:27:21.067Z,75.50
2018-10-16T03:29:49.203Z,75.80
2018-10-16T03:32:17.379Z,75.80
2018-10-16T03:34:45.522Z,75.90
2018-10-16T03:37:13.684Z,76.10
2018-10-16T03:39:41.811Z,76.20
2018-10-16T03:42:09.905Z,76.50
2018-10-16T03:44:38.043Z,76.70
2018-10-16T03:47:06.270Z,76.80
2018-10-16T03:49:34.396Z,77.20
2018-10-16T03:52:02.556Z,77.30
2018-10-16T03:54:30.676Z,77.70
2018-10-16T03:56:58.814Z,78.00
2018-10-16T03:59:26.925Z,77.70
2018-10-16T04:01:55.024Z,77.50
2018-10-16T04:04:23.132Z,77.50
2018-10-16T04:06:51.343Z,77.30
2018-10-16T04:09:19.338Z,77.50
2018-10-16T04:11:47.441Z,77.90
2018-10-16T04:14:15.578Z,77.80
2018-10-16T04:16:43.696Z,77.80
2018-10-16T04:19:11.753Z,78.00
2018-10-16T04:21:47.128Z,78.10
2018-10-16T04:24:15.577Z,78.40
2018-10-16T04:26:43.724Z,78.80
2018-10-16T04:29:12.267Z,78.90
2018-10-16T04:31:40.544Z,79.50
2018-10-16T04:34:09.706Z,79.80
2018-10-16T04:36:37.866Z,80.40
2018-10-16T04:39:08.727Z,80.50
2018-10-16T04:41:36.890Z,80.40
2018-10-16T04:44:05.033Z,80.40
2018-10-16T04:46:33.127Z,80.60
2018-10-16T04:49:01.247Z,80.90
2018-10-16T04:51:29.361Z,80.80
2018-10-16T04:53:57.464Z,80.90
2018-10-16T04:56:25.548Z,80.50
2018-10-16T04:58:53.632Z,80.30
2018-10-16T05:01:21.786Z,80.20
2018-10-16T05:03:49.916Z,80.40
2018-10-16T05:06:18.060Z,80.80
2018-10-16T05:08:46.180Z,81.20
2018-10-16T05:11:14.371Z,81.30
2018-10-16T05:13:42.596Z,81.30
2018-10-16T05:16:10.709Z,81.30
2018-10-16T05:18:38.853Z,81.40
2018-10-16T05:21:06.934Z,81.60
2018-10-16T05:23:35.027Z,81.60
2018-10-16T05:26:03.109Z,81.70
2018-10-16T05:28:31.243Z,81.70
2018-10-16T05:30:59.435Z,81.90
2018-10-16T05:33:27.462Z,82.20
2018-10-16T05:35:55.591Z,82.50
2018-10-16T05:38:23.659Z,82.70
2018-10-16T05:40:51.751Z,83.10
2018-10-16T05:43:19.925Z,82.70
2018-10-16T05:45:48.043Z,83.50
2018-10-16T05:48:16.203Z,83.50
2018-10-16T05:50:44.722Z,83.10
2018-10-16T05:53:12.832Z,83.10
2018-10-16T05:55:40.926Z,83.10
2018-10-16T05:58:09.205Z,83.00
2018-10-16T06:00:39.247Z,83.30
2018-10-16T06:03:07.408Z,83.30
2018-10-16T06:05:35.769Z,83.30
2018-10-16T06:08:03.920Z,83.30
2018-10-16T06:10:32.060Z,83.30
2018-10-16T06:13:00.200Z,83.10
2018-10-16T06:15:28.305Z,82.90
2018-10-16T06:17:56.425Z,82.90
2018-10-16T06:20:24.513Z,83.00
2018-10-16T06:22:52.612Z,83.10
2018-10-16T06:25:20.693Z,82.80
2018-10-16T06:27:48.810Z,82.70
2018-10-16T06:30:16.960Z,82.60
2018-10-16T06:32:45.021Z,81.80
2018-10-16T06:35:13.102Z,80.80
2018-10-16T06:37:41.181Z,79.90
2018-10-16T06:40:10.133Z,79.80
2018-10-16T06:42:38.581Z,79.50
2018-10-16T06:45:08.075Z,79.60
2018-10-16T06:47:36.219Z,79.70
2018-10-16T06:50:05.198Z,79.80
2018-10-16T06:52:33.439Z,79.80
2018-10-16T06:55:01.581Z,80.00
2018-10-16T06:57:29.680Z,79.70
2018-10-16T06:59:57.866Z,79.40
2018-10-16T07:02:25.974Z,80.00
2018-10-16T07:04:54.167Z,79.10
2018-10-16T07:07:22.429Z,78.70
2018-10-16T07:09:50.461Z,78.60
2018-10-16T07:12:18.633Z,78.40
2018-10-16T07:14:46.764Z,78.10
2018-10-16T07:17:14.808Z,77.60
2018-10-16T07:19:42.905Z,77.50
2018-10-16T07:22:11.871Z,76.90
2018-10-16T07:24:39.986Z,76.60
2018-10-16T07:27:08.127Z,76.10
2018-10-16T07:29:36.654Z,75.70
2018-10-16T07:32:05.183Z,75.30
2018-10-16T07:34:33.610Z,75.10
2018-10-16T07:37:01.838Z,74.60
2018-10-16T07:39:29.984Z,74.30
2018-10-16T07:41:58.089Z,74.00
2018-10-16T07:44:26.227Z,73.60
2018-10-16T07:46:54.442Z,73.00
2018-10-16T07:49:22.710Z,72.50
2018-10-16T07:51:50.858Z,72.40
2018-10-16T07:54:19.133Z,72.20
2018-10-16T07:56:47.469Z,72.00
2018-10-16T07:59:15.807Z,71.70
2018-10-16T08:01:44.088Z,71.00
2018-10-16T08:04:12.481Z,70.60
2018-10-16T08:06:40.653Z,70.20
2018-10-16T08:09:12.209Z,70.10
2018-10-16T08:11:45.250Z,69.60
2018-10-16T08:14:14.451Z,69.40
2018-10-16T08:16:43.269Z,68.60
2018-10-16T08:19:11.737Z,68.70
2018-10-16T08:21:40.289Z,68.70
2018-10-16T08:24:09.266Z,67.70
2018-10-16T08:26:37.874Z,67.50
2018-10-16T08:29:07.242Z,67.10
2018-10-16T08:31:35.706Z,66.50
2018-10-16T08:34:10.648Z,66.00
2018-10-16T08:36:38.900Z,65.90
2018-10-16T08:39:40.373Z,65.90
2018-10-16T08:43:23.700Z,65.80
2018-10-16T08:46:03.460Z,65.10
2018-10-16T08:48:43.914Z,64.50
2018-10-16T08:51:23.559Z,64.70
2018-10-16T08:53:51.644Z,64.10
2018-10-16T08:56:19.714Z,63.80
2018-10-16T08:58:47.783Z,63.30
2018-10-16T09:01:15.873Z,63.00
2018-10-16T09:03:43.967Z,62.60
2018-10-16T09:06:12.044Z,62.70
2018-10-16T09:08:40.156Z,62.60
2018-10-16T09:11:08.327Z,62.20
2018-10-16T09:13:36.425Z,62.00
2018-10-16T09:16:04.530Z,62.50
2018-10-16T09:18:32.600Z,62.30
2018-10-16T09:21:00.714Z,62.00
2018-10-16T09:23:28.800Z,61.90
2018-10-16T09:25:57.425Z,61.80
2018-10-16T09:28:25.567Z,60.90
2018-10-16T09:30:53.727Z,60.60
2018-10-16T09:33:21.838Z,60.40
2018-10-16T09:35:49.989Z,59.90
2018-10-16T09:38:18.129Z,59.70
2018-10-16T09:40:46.235Z,59.60
2018-10-16T09:43:14.353Z,59.20
2018-10-16T09:45:42.476Z,59.00
2018-10-16T09:48:10.598Z,58.80
2018-10-16T09:50:38.751Z,58.40
2018-10-16T09:53:07.173Z,58.90
2018-10-16T09:55:35.326Z,58.70
2018-10-16T09:58:03.449Z,58.40
2018-10-16T10:01:37.690Z,58.40
2018-10-16T10:04:05.865Z,57.90
2018-10-16T10:06:34.124Z,57.40
2018-10-16T10:09:02.258Z,57.20
2018-10-16T10:11:30.348Z,57.50
2018-10-16T10:13:58.540Z,57.60
2018-10-16T10:16:27.419Z,57.60
2018-10-16T10:18:55.569Z,56.60
2018-10-16T10:21:23.724Z,56.00
2018-10-16T10:23:51.840Z,56.00
2018-10-16T10:26:20.091Z,56.30
2018-10-16T10:28:48.734Z,56.30
2018-10-16T10:31:16.876Z,56.20
2018-10-16T10:33:45.043Z,56.10
2018-10-16T10:36:13.471Z,56.10
2018-10-16T10:38:41.628Z,55.70
2018-10-16T10:41:09.706Z,55.20
2018-10-16T10:43:38.012Z,55.30
2018-10-16T10:46:06.247Z,55.00
2018-10-16T10:48:34.331Z,55.40
2018-10-16T10:51:02.663Z,54.50
2018-10-16T10:53:30.633Z,53.80
2018-10-16T10:55:58.716Z,53.60
2018-10-16T10:58:26.918Z,54.00
2018-10-16T11:00:55.067Z,52.60
2018-10-16T11:03:23.368Z,52.80
2018-10-16T11:05:51.403Z,51.60
2018-10-16T11:08:19.521Z,51.50
2018-10-16T11:10:47.656Z,51.70
2018-10-16T11:13:15.755Z,51.60
2018-10-16T11:15:43.836Z,51.90
2018-10-16T11:18:11.943Z,52.20
2018-10-16T11:20:40.072Z,52.30
2018-10-16T11:23:08.189Z,52.50
2018-10-16T11:25:36.272Z,52.30
2018-10-16T11:28:04.507Z,52.20
2018-10-16T11:30:32.608Z,51.90
2018-10-16T11:33:00.793Z,51.60
2018-10-16T11:35:28.837Z,50.90
2018-10-16T11:37:56.954Z,50.10
2018-10-16T11:40:25.032Z,49.60
2018-10-16T11:42:53.127Z,49.00
2018-10-16T11:45:21.240Z,48.50
2018-10-16T11:47:49.337Z,47.50
2018-10-16T11:50:17.618Z,47.50
2018-10-16T11:52:45.659Z,48.10
2018-10-16T11:55:13.764Z,47.20
2018-10-16T11:57:41.847Z,46.60
2018-10-16T12:00:12.242Z,46.40
2018-10-16T12:02:40.441Z,45.90
2018-10-16T12:05:08.557Z,46.20
2018-10-16T12:07:36.703Z,46.50
2018-10-16T12:10:05.118Z,46.60
2018-10-16T12:12:33.167Z,46.10
2018-10-16T12:15:01.267Z,46.90
2018-10-16T12:17:38.773Z,46.50
2018-10-16T12:20:10.221Z,46.60
2018-10-16T12:22:38.360Z,46.70
2018-10-16T12:25:06.942Z,46.70
2018-10-16T12:27:35.033Z,46.60
2018-10-16T12:30:03.213Z,47.10
2018-10-16T12:32:31.385Z,47.00
2018-10-16T12:34:59.749Z,47.10
2018-10-16T12:37:27.859Z,46.60
2018-10-16T12:39:55.961Z,47.00
2018-10-16T12:42:24.072Z,47.10
2018-10-16T12:44:52.189Z,47.10
2018-10-16T12:47:20.284Z,47.70
2018-10-16T12:49:48.488Z,48.00
2018-10-16T12:52:16.604Z,48.40
2018-10-16T12:54:44.692Z,47.70
2018-10-16T12:57:12.821Z,47.40
2018-10-16T12:59:40.919Z,47.40
2018-10-16T13:02:09.073Z,47.60
2018-10-16T13:04:37.128Z,47.30
2018-10-16T13:07:15.108Z,47.00
2018-10-16T13:09:43.251Z,47.20
2018-10-16T13:12:11.357Z,47.40
2018-10-16T13:14:39.571Z,47.60
2018-10-16T13:17:07.711Z,47.50
2018-10-16T13:19:35.794Z,47.70
2018-10-16T13:22:03.924Z,48.00
2018-10-16T13:24:32.094Z,48.10
2018-10-16T13:27:00.285Z,47.60
2018-10-16T13:29:28.553Z,47.60
2018-10-16T13:31:56.620Z,47.60
2018-10-16T13:34:24.778Z,47.20
2018-10-16T13:36:52.985Z,47.70
2018-10-16T13:39:20.985Z,47.60
2018-10-16T13:41:49.192Z,47.10
2018-10-16T13:44:17.446Z,46.90
2018-10-16T13:46:45.530Z,47.50
2018-10-16T13:49:13.617Z,47.60
2018-10-16T13:51:41.721Z,48.00
2018-10-16T13:54:10.174Z,47.80
2018-10-16T13:56:38.428Z,47.90
2018-10-16T13:59:06.530Z,48.20
2018-10-16T14:01:34.653Z,48.40
2018-10-16T14:04:02.903Z,47.90
2018-10-16T14:06:30.982Z,47.90
2018-10-16T14:08:59.080Z,48.30
2018-10-16T14:11:27.195Z,48.40
2018-10-16T14:13:55.369Z,48.70
2018-10-16T14:16:23.463Z,48.70
2018-10-16T14:18:51.545Z,48.90
2018-10-16T14:21:19.623Z,49.10
2018-10-16T14:23:47.689Z,48.70
2018-10-16T14:26:15.820Z,48.80
2018-10-16T14:28:43.850Z,48.80
2018-10-16T14:31:12.000Z,48.70
2018-10-16T14:33:40.172Z,48.70
2018-10-16T14:36:08.316Z,48.10
2018-10-16T14:38:36.488Z,48.10
2018-10-16T14:41:04.631Z,48.20
2018-10-16T14:43:32.768Z,48.60
2018-10-16T14:46:01.503Z,48.80
2018-10-16T14:48:29.916Z,48.90
2018-10-16T14:50:58.023Z,49.30
2018-10-16T14:53:26.110Z,49.70
2018-10-16T14:55:54.363Z,49.10
2018-10-16T14:58:22.423Z,49.20
2018-10-16T15:00:50.573Z,49.40
2018-10-16T15:03:18.777Z,49.70
2018-10-16T15:05:46.888Z,50.00
2018-10-16T15:08:15.122Z,49.60
2018-10-16T15:10:43.194Z,49.80
2018-10-16T15:13:11.296Z,50.30
2018-10-16T15:15:39.398Z,50.70
2018-10-16T15:18:07.626Z,50.90
2018-10-16T15:20:35.736Z,51.30
2018-10-16T15:23:04.043Z,51.60
2018-10-16T15:25:32.209Z,51.60
2018-10-16T15:28:00.376Z,51.90
2018-10-16T15:30:28.593Z,51.90
2018-10-16T15:32:56.716Z,51.90
2018-10-16T15:35:24.848Z,51.90
2018-10-16T15:37:52.969Z,52.00
2018-10-16T15:40:21.121Z,52.40
2018-10-16T15:42:49.312Z,52.50
2018-10-16T15:45:17.468Z,52.70
2018-10-16T15:47:45.554Z,52.80
2018-10-16T15:50:13.749Z,53.00
2018-10-16T15:52:41.800Z,53.20
2018-10-16T15:55:11.081Z,53.50
2018-10-16T15:57:39.397Z,53.80
2018-10-16T16:00:13.709Z,54.10
2018-10-16T16:02:41.840Z,54.50
2018-10-16T16:05:09.948Z,54.90
2018-10-16T16:07:38.220Z,56.40
2018-10-16T16:10:08.011Z,56.40
2018-10-16T16:12:36.658Z,56.90
2018-10-16T16:15:05.329Z,57.50
2018-10-16T16:17:33.428Z,57.90
2018-10-16T16:20:01.560Z,58.10
2018-10-16T16:22:29.613Z,58.50
2018-10-16T16:24:57.753Z,58.90
2018-10-16T16:27:25.851Z,59.40
2018-10-16T16:29:54.018Z,59.90
2018-10-16T16:32:22.172Z,60.70
2018-10-16T16:34:50.249Z,61.20
2018-10-16T16:37:18.350Z,62.10
2018-10-16T16:39:46.483Z,62.50
2018-10-16T16:42:14.597Z,62.70
2018-10-16T16:44:42.689Z,63.40
2018-10-16T16:47:10.814Z,63.60
2018-10-16T16:49:38.884Z,64.00
2018-10-16T16:52:07.232Z,64.70
2018-10-16T16:54:35.209Z,65.90
2018-10-16T16:57:03.367Z,65.20
2018-10-16T16:59:31.511Z,65.40
2018-10-16T17:01:59.738Z,65.90
2018-10-16T17:04:27.932Z,66.50
2018-10-16T17:06:56.012Z,66.50
2018-10-16T17:09:24.091Z,66.90
2018-10-16T17:11:52.320Z,67.20
2018-10-16T17:14:20.431Z,66.80
2018-10-16T17:16:48.546Z,67.00
2018-10-16T17:19:16.632Z,66.80
2018-10-16T17:21:44.718Z,67.40
2018-10-16T17:24:12.875Z,67.90
2018-10-16T17:26:40.996Z,68.70
2018-10-16T17:29:09.109Z,69.10
2018-10-16T17:31:37.272Z,69.70
2018-10-16T17:34:05.763Z,70.30
2018-10-16T17:36:33.800Z,70.50
2018-10-16T17:39:02.140Z,70.80
2018-10-16T17:41:30.208Z,71.30
2018-10-16T17:43:59.911Z,71.70
2018-10-16T17:46:28.049Z,71.80
2018-10-16T17:48:56.225Z,72.00
2018-10-16T17:51:24.367Z,72.40
2018-10-16T17:53:52.734Z,72.60
2018-10-16T17:56:20.930Z,72.00
2018-10-16T17:58:49.148Z,72.20
2018-10-16T18:01:17.262Z,72.30
2018-10-16T18:03:45.392Z,72.60
2018-10-16T18:06:13.509Z,72.90
2018-10-16T18:08:41.715Z,73.30
2018-10-16T18:11:09.806Z,73.80
2018-10-16T18:13:37.984Z,74.30
2018-10-16T18:16:06.405Z,74.70
2018-10-16T18:18:34.622Z,75.00
2018-10-16T18:21:02.766Z,75.20
2018-10-16T18:23:31.015Z,75.50
2018-10-16T18:25:59.127Z,75.70
2018-10-16T18:28:27.327Z,76.00
2018-10-16T18:30:55.478Z,76.50
2018-10-16T18:33:23.588Z,77.10
2018-10-16T18:38:28.668Z,77.40
2018-10-16T18:40:56.840Z,77.60
2018-10-16T18:43:24.971Z,77.20
2018-10-16T18:45:53.260Z,76.90
2018-10-16T18:48:21.454Z,76.60
2018-10-16T18:50:49.511Z,77.00
2018-10-16T18:53:17.736Z,77.20
2018-10-16T18:55:45.862Z,77.80
2018-10-16T18:58:13.999Z,78.10
2018-10-16T19:00:42.091Z,78.40
2018-10-16T19:03:10.264Z,78.70
2018-10-16T19:05:38.378Z,79.10
2018-10-16T19:08:06.632Z,79.50
2018-10-16T19:10:34.755Z,79.30
2018-10-16T19:13:03.369Z,79.40
2018-10-16T19:15:31.480Z,79.70
2018-10-16T19:17:59.582Z,80.40
2018-10-16T19:20:27.760Z,80.10
2018-10-16T19:22:55.903Z,80.40
2018-10-16T19:25:24.050Z,80.60
2018-10-16T19:27:52.169Z,81.20
2018-10-16T19:30:20.397Z,81.50
2018-10-16T19:32:48.612Z,81.90
2018-10-16T19:35:16.773Z,82.10
2018-10-16T19:37:44.961Z,82.20
2018-10-16T19:40:13.084Z,82.40
2018-10-16T19:42:41.208Z,82.40
2018-10-16T19:45:09.896Z,82.40
2018-10-16T19:47:37.979Z,82.90
2018-10-16T19:50:06.842Z,83.80
2018-10-16T19:52:35.004Z,82.80
2018-10-16T19:55:03.156Z,83.20
2018-10-16T19:57:31.340Z,83.10
2018-10-16T19:59:59.479Z,83.20
2018-10-16T20:02:27.549Z,83.50
2018-10-16T20:04:55.659Z,83.80
2018-10-16T20:07:23.879Z,84.20
2018-10-16T20:09:52.072Z,84.40
2018-10-16T20:12:20.178Z,84.80
2018-10-16T20:14:48.388Z,85.30
2018-10-16T20:17:16.588Z,85.40
2018-10-16T20:19:44.801Z,84.80
2018-10-16T20:22:13.289Z,85.10
2018-10-16T20:24:41.475Z,85.10
2018-10-16T20:27:09.763Z,85.20
2018-10-16T20:29:38.224Z,85.50
2018-10-16T20:32:06.348Z,85.50
2018-10-16T20:34:34.526Z,85.30
2018-10-16T20:37:02.816Z,85.50
2018-10-16T20:39:31.006Z,85.70
2018-10-16T20:41:59.248Z,85.90
2018-10-16T20:44:27.354Z,85.90
2018-10-16T20:46:55.645Z,86.40
2018-10-16T20:49:23.803Z,86.40
2018-10-16T20:51:51.933Z,86.30
2018-10-16T20:54:20.048Z,86.00
2018-10-16T20:56:48.184Z,86.20
2018-10-16T20:59:16.292Z,86.20
2018-10-16T21:01:44.380Z,86.60
2018-10-16T21:04:12.564Z,86.70
2018-10-16T21:06:47.784Z,87.00
2018-10-16T21:09:15.528Z,87.00
2018-10-16T21:11:43.593Z,86.90
2018-10-16T21:14:11.691Z,87.10
2018-10-16T21:16:39.843Z,87.10
2018-10-16T21:19:07.991Z,87.10
2018-10-16T21:21:36.217Z,87.00
2018-10-16T21:24:04.573Z,86.40
2018-10-16T21:26:32.670Z,86.80
2018-10-16T21:29:00.795Z,87.20
2018-10-16T21:31:28.918Z,87.00
2018-10-16T21:33:57.089Z,87.00
2018-10-16T21:36:25.263Z,87.10
2018-10-16T21:38:53.389Z,87.30
2018-10-16T21:41:21.576Z,87.50
2018-10-16T21:43:49.762Z,87.70
2018-10-16T21:46:17.914Z,88.10
2018-10-16T21:48:46.008Z,88.60
2018-10-16T21:51:14.090Z,88.90
2018-10-16T21:53:42.175Z,89.20
2018-10-16T21:56:10.285Z,89.50
2018-10-16T21:58:38.433Z,89.80
2018-10-16T22:01:08.562Z,90.50
2018-10-16T22:03:36.622Z,90.30
2018-10-16T22:06:04.826Z,90.40
2018-10-16T22:08:32.911Z,90.30
2018-10-16T22:11:01.032Z,90.40
2018-10-16T22:13:29.086Z,90.40
2018-10-16T22:15:57.223Z,90.50
2018-10-16T22:18:25.391Z,90.50
2018-10-16T22:20:53.606Z,90.60
2018-10-16T22:23:21.694Z,90.70
2018-10-16T22:25:49.847Z,90.80
2018-10-16T22:28:17.922Z,90.80
2018-10-16T22:30:46.073Z,90.70
2018-10-16T22:33:14.160Z,90.70
2018-10-16T22:35:42.225Z,90.90
2018-10-16T22:38:10.341Z,90.80
2018-10-16T22:40:38.439Z,90.90
2018-10-16T22:43:06.811Z,91.10
2018-10-16T22:45:34.903Z,91.10
2018-10-16T22:48:02.993Z,91.20
2018-10-16T22:50:31.065Z,91.50
2018-10-16T22:52:59.284Z,91.40
2018-10-16T22:55:27.390Z,91.30
2018-10-16T22:57:55.542Z,91.50
2018-10-16T23:00:23.667Z,91.80
2018-10-16T23:02:51.772Z,91.70
2018-10-16T23:05:19.972Z,91.80
2018-10-16T23:07:48.078Z,91.80
2018-10-16T23:10:16.237Z,91.80
2018-10-16T23:12:44.594Z,91.70
2018-10-16T23:15:12.670Z,91.80
2018-10-16T23:17:40.946Z,92.10
2018-10-16T23:20:10.106Z,92.10
2018-10-16T23:22:38.244Z,92.40
2018-10-16T23:25:06.434Z,91.80
2018-10-16T23:27:34.761Z,91.70
2018-10-16T23:30:02.925Z,91.80
2018-10-16T23:32:31.073Z,91.90
2018-10-16T23:34:59.657Z,92.10
2018-10-16T23:37:27.798Z,92.60
2018-10-16T23:39:55.883Z,92.50
2018-10-16T23:42:24.002Z,92.30
2018-10-16T23:44:52.210Z,92.50
2018-10-16T23:47:20.389Z,92.80
2018-10-16T23:49:48.534Z,93.00
2018-10-16T23:52:16.676Z,92.90
2018-10-16T23:54:44.855Z,93.10
2018-10-16T23:57:12.954Z,93.60
2018-10-16T23:59:41.057Z,93.50
